Time,TemperatureF,DewpointF,PressureIn,WindDirection,WindDirectionDegrees,WindSpeedMPH,WindSpeedGustMPH,Humidity,HourlyPrecipIn,Conditions,Clouds,dailyrainin,SoftwareType,DateUTC
2013-06-07 00:02:00,53.6,52.8,29.85,WNW,284,0.0,0.0,97,0.00,,,0.00,Wunderground v.1.15,2013-06-07 07:02:00,
2013-06-07 00:07:00,53.6,53.0,29.85,WNW,284,0.0,0.0,98,0.00,,,0.00,Wunderground v.1.15,2013-06-07 07:07:00,
2013-06-07 00:12:00,53.6,53.0,29.85,WNW,284,0.0,0.0,98,0.00,,,0.00,Wunderground v.1.15,2013-06-07 07:12:00,
2013-06-07 00:17:00,53.6,53.0,29.85,WNW,284,0.0,0.0,98,0.00,,,0.00,Wunderground v.1.15,2013-06-07 07:17:00,
2013-06-07 00:22:00,53.6,53.0,29.85,WNW,284,0.0,0.0,98,0.00,,,0.00,Wunderground v.1.15,2013-06-07 07:22:00,
2013-06-07 00:27:00,53.6,53.0,29.85,WNW,284,0.0,0.0,98,0.00,,,0.00,Wunderground v.1.15,2013-06-07 07:27:00,
2013-06-07 00:32:00,53.6,53.0,29.85,WNW,284,0.0,0.0,98,0.00,,,0.00,Wunderground v.1.15,2013-06-07 07:32:00,
2013-06-07 00:37:00,53.6,53.0,29.85,WNW,284,0.0,0.0,98,0.00,,,0.00,Wunderground v.1.15,2013-06-07 07:37:00,
2013-06-07 00:42:00,53.6,53.0,29.85,WNW,284,0.0,0.0,98,0.00,,,0.00,Wunderground v.1.15,2013-06-07 07:42:00,
2013-06-07 00:47:00,53.6,53.0,29.85,WNW,284,0.0,0.0,98,0.00,,,0.00,Wunderground v.1.15,2013-06-07 07:47:00,
2013-06-07 00:52:00,53.6,53.0,29.85,WNW,284,0.0,0.0,98,0.00,,,0.00,Wunderground v.1.15,2013-06-07 07:52:00,
2013-06-07 00:57:00,53.6,53.0,29.85,WNW,284,0.0,0.0,98,0.00,,,0.00,Wunderground v.1.15,2013-06-07 07:57:00,
2013-06-07 01:02:00,53.6,53.0,29.84,WNW,284,0.0,0.0,98,0.00,,,0.00,Wunderground v.1.15,2013-06-07 08:02:00,
2013-06-07 01:07:00,53.6,53.0,29.84,WNW,284,0.0,0.0,98,0.00,,,0.00,Wunderground v.1.15,2013-06-07 08:07:00,
2013-06-07 01:12:00,53.6,53.0,29.84,WNW,284,0.0,0.0,98,0.00,,,0.00,Wunderground v.1.15,2013-06-07 08:12:00,
2013-06-07 01:17:00,53.5,52.9,29.84,WNW,284,0.0,0.0,98,0.00,,,0.00,Wunderground v.1.15,2013-06-07 08:17:00,
2013-06-07 01:22:00,53.5,52.9,29.84,WNW,284,0.0,0.0,98,0.00,,,0.00,Wunderground v.1.15,2013-06-07 08:22:00,
2013-06-07 01:27:00,53.3,52.8,29.84,WNW,284,0.0,0.0,98,0.00,,,0.00,Wunderground v.1.15,2013-06-07 08:27:00,
2013-06-07 01:32:00,53.3,53.0,29.84,WNW,284,0.0,0.0,99,0.00,,,0.00,Wunderground v.1.15,2013-06-07 08:32:00,
2013-06-07 01:37:00,53.3,53.0,29.84,WNW,284,0.0,0.0,99,0.00,,,0.00,Wunderground v.1.15,2013-06-07 08:37:00,
2013-06-07 01:42:00,53.3,53.0,29.84,WNW,284,0.0,0.0,99,0.00,,,0.00,Wunderground v.1.15,2013-06-07 08:42:00,
2013-06-07 01:47:00,53.3,53.0,29.83,WNW,284,0.0,0.0,99,0.00,,,0.00,Wunderground v.1.15,2013-06-07 08:47:00,
2013-06-07 01:52:00,53.3,53.0,29.83,WNW,284,0.0,0.0,99,0.00,,,0.00,Wunderground v.1.15,2013-06-07 08:52:00,
2013-06-07 01:57:00,53.3,53.0,29.83,WNW,284,0.0,0.0,99,0.00,,,0.00,Wunderground v.1.15,2013-06-07 08:57:00,
2013-06-07 02:02:00,53.3,53.0,29.83,WNW,284,0.0,0.0,99,0.00,,,0.00,Wunderground v.1.15,2013-06-07 09:02:00,
2013-06-07 02:07:00,53.3,53.0,29.83,WNW,284,0.0,0.0,99,0.00,,,0.00,Wunderground v.1.15,2013-06-07 09:07:00,
2013-06-07 02:12:00,53.3,53.3,29.83,WNW,284,0.0,0.0,100,0.00,,,0.00,Wunderground v.1.15,2013-06-07 09:12:00,
2013-06-07 02:17:00,53.3,53.3,29.83,WNW,284,0.0,0.0,100,0.00,,,0.00,Wunderground v.1.15,2013-06-07 09:17:00,
2013-06-07 02:22:00,53.3,53.3,29.83,WNW,284,0.0,0.0,100,0.00,,,0.00,Wunderground v.1.15,2013-06-07 09:22:00,
2013-06-07 02:27:00,53.3,53.3,29.83,WNW,284,0.0,0.0,100,0.00,,,0.00,Wunderground v.1.15,2013-06-07 09:27:00,
2013-06-07 02:32:00,53.3,53.3,29.82,WNW,284,0.0,0.0,100,0.00,,,0.00,Wunderground v.1.15,2013-06-07 09:32:00,
2013-06-07 02:37:00,53.3,53.3,29.82,WNW,284,0.0,0.0,100,0.00,,,0.00,Wunderground v.1.15,2013-06-07 09:37:00,
2013-06-07 02:42:00,53.3,53.3,29.82,WNW,284,0.0,0.0,100,0.00,,,0.00,Wunderground v.1.15,2013-06-07 09:42:00,
2013-06-07 02:47:00,53.2,53.2,29.82,WNW,284,0.0,0.0,100,0.00,,,0.00,Wunderground v.1.15,2013-06-07 09:47:00,
2013-06-07 02:52:00,53.2,53.2,29.82,WNW,284,0.0,0.0,100,0.00,,,0.00,Wunderground v.1.15,2013-06-07 09:52:00,
2013-06-07 02:57:00,53.2,53.2,29.82,WNW,284,0.0,0.0,100,0.00,,,0.00,Wunderground v.1.15,2013-06-07 09:57:00,
2013-06-07 03:02:00,53.1,53.1,29.82,WNW,284,0.0,0.0,100,0.00,,,0.00,Wunderground v.1.15,2013-06-07 10:02:00,
2013-06-07 03:07:00,53.1,53.1,29.82,WNW,284,0.0,0.0,100,0.00,,,0.00,Wunderground v.1.15,2013-06-07 10:07:00,
2013-06-07 03:12:00,53.1,53.1,29.82,WNW,284,0.0,0.0,100,0.00,,,0.00,Wunderground v.1.15,2013-06-07 10:12:00,
2013-06-07 03:17:00,53.1,53.1,29.82,WNW,284,0.0,0.0,100,0.00,,,0.00,Wunderground v.1.15,2013-06-07 10:17:00,
2013-06-07 03:22:00,53.1,53.1,29.82,WNW,284,0.0,0.0,100,0.00,,,0.00,Wunderground v.1.15,2013-06-07 10:22:00,
2013-06-07 03:27:00,53.1,53.1,29.82,WNW,284,0.0,0.0,100,0.00,,,0.00,Wunderground v.1.15,2013-06-07 10:27:00,
2013-06-07 03:32:00,53.1,53.1,29.81,WNW,284,0.0,0.0,100,0.00,,,0.00,Wunderground v.1.15,2013-06-07 10:32:00,
2013-06-07 03:37:00,53.1,53.1,29.81,WNW,284,0.0,0.0,100,0.00,,,0.00,Wunderground v.1.15,2013-06-07 10:37:00,
2013-06-07 03:42:00,53.1,53.1,29.81,WNW,284,0.0,0.0,100,0.00,,,0.00,Wunderground v.1.15,2013-06-07 10:42:00,
2013-06-07 03:47:00,53.1,53.1,29.81,WNW,284,0.0,0.0,100,0.00,,,0.00,Wunderground v.1.15,2013-06-07 10:47:00,
2013-06-07 03:52:00,53.1,53.1,29.81,WNW,284,0.0,0.0,100,0.00,,,0.00,Wunderground v.1.15,2013-06-07 10:52:00,
2013-06-07 03:57:00,52.9,52.9,29.81,WNW,284,0.0,0.0,100,0.00,,,0.00,Wunderground v.1.15,2013-06-07 10:57:00,
2013-06-07 04:02:00,52.9,52.9,29.81,WNW,284,0.0,0.0,100,0.00,,,0.00,Wunderground v.1.15,2013-06-07 11:02:00,
2013-06-07 04:07:00,52.9,52.9,29.81,WNW,284,0.0,0.0,100,0.00,,,0.00,Wunderground v.1.15,2013-06-07 11:07:00,
2013-06-07 04:12:00,52.9,52.9,29.81,WNW,284,0.0,0.0,100,0.00,,,0.00,Wunderground v.1.15,2013-06-07 11:12:00,
2013-06-07 04:18:00,52.9,52.9,29.81,WNW,284,0.0,0.0,100,0.00,,,0.00,Wunderground v.1.15,2013-06-07 11:18:00,
2013-06-07 04:23:00,52.9,52.9,29.81,WNW,284,0.0,0.0,100,0.00,,,0.00,Wunderground v.1.15,2013-06-07 11:23:00,
2013-06-07 04:27:00,52.9,52.9,29.81,WNW,284,0.0,0.0,100,0.00,,,0.00,Wunderground v.1.15,2013-06-07 11:27:00,
2013-06-07 04:33:00,52.9,52.9,29.80,WNW,284,0.0,0.0,100,0.00,,,0.00,Wunderground v.1.15,2013-06-07 11:33:00,
2013-06-07 04:38:00,52.8,52.8,29.80,WNW,284,0.0,0.0,100,0.00,,,0.00,Wunderground v.1.15,2013-06-07 11:38:00,
2013-06-07 04:43:00,52.8,52.8,29.80,WNW,299,0.0,0.0,100,0.00,,,0.00,Wunderground v.1.15,2013-06-07 11:43:00,
2013-06-07 04:48:00,52.8,52.8,29.80,WNW,299,0.0,0.0,100,0.00,,,0.00,Wunderground v.1.15,2013-06-07 11:48:00,
2013-06-07 04:53:00,52.6,52.6,29.80,WNW,299,0.0,0.0,100,0.00,,,0.00,Wunderground v.1.15,2013-06-07 11:53:00,
2013-06-07 04:58:00,52.6,52.6,29.80,WNW,299,0.0,0.0,100,0.00,,,0.00,Wunderground v.1.15,2013-06-07 11:58:00,
2013-06-07 05:03:00,52.6,52.6,29.80,WNW,299,0.0,0.0,100,0.00,,,0.00,Wunderground v.1.15,2013-06-07 12:03:00,
2013-06-07 05:08:00,52.5,52.5,29.80,WNW,299,0.0,0.0,100,0.00,,,0.00,Wunderground v.1.15,2013-06-07 12:08:00,
2013-06-07 05:13:00,52.5,52.5,29.80,WNW,299,0.0,0.0,100,0.00,,,0.00,Wunderground v.1.15,2013-06-07 12:13:00,
2013-06-07 05:18:00,52.6,52.6,29.80,WNW,299,0.0,0.0,100,0.00,,,0.00,Wunderground v.1.15,2013-06-07 12:18:00,
2013-06-07 05:23:00,52.6,52.6,29.80,WNW,299,0.0,0.0,100,0.00,,,0.00,Wunderground v.1.15,2013-06-07 12:23:00,
2013-06-07 05:28:00,52.6,52.6,29.80,NW,317,0.0,0.0,100,0.00,,,0.00,Wunderground v.1.15,2013-06-07 12:28:00,
2013-06-07 05:33:00,52.6,52.6,29.80,NW,317,0.0,0.0,100,0.00,,,0.00,Wunderground v.1.15,2013-06-07 12:33:00,
2013-06-07 05:38:00,52.5,52.5,29.80,NW,317,0.0,0.0,100,0.00,,,0.00,Wunderground v.1.15,2013-06-07 12:38:00,
2013-06-07 05:43:00,52.5,52.5,29.80,NW,317,0.0,0.0,100,0.00,,,0.00,Wunderground v.1.15,2013-06-07 12:43:00,
2013-06-07 05:48:00,52.5,52.5,29.80,NW,317,0.0,0.0,100,0.00,,,0.00,Wunderground v.1.15,2013-06-07 12:48:00,
2013-06-07 05:53:00,52.5,52.5,29.80,NW,317,0.0,0.0,100,0.00,,,0.00,Wunderground v.1.15,2013-06-07 12:53:00,
2013-06-07 05:58:00,52.5,52.5,29.80,NW,315,0.0,0.0,100,0.00,,,0.00,Wunderground v.1.15,2013-06-07 12:58:00,
2013-06-07 06:03:00,52.3,52.3,29.80,NW,315,0.0,0.0,100,0.00,,,0.00,Wunderground v.1.15,2013-06-07 13:03:00,
2013-06-07 06:08:00,52.3,52.3,29.80,NW,315,0.0,0.0,100,0.00,,,0.00,Wunderground v.1.15,2013-06-07 13:08:00,
2013-06-07 06:13:00,52.3,52.3,29.80,NW,315,0.0,0.0,100,0.00,,,0.00,Wunderground v.1.15,2013-06-07 13:13:00,
2013-06-07 06:18:00,52.3,52.3,29.80,NW,315,0.0,0.0,100,0.00,,,0.00,Wunderground v.1.15,2013-06-07 13:18:00,
2013-06-07 06:23:00,52.2,52.2,29.80,NW,315,0.0,0.0,100,0.00,,,0.00,Wunderground v.1.15,2013-06-07 13:23:00,
2013-06-07 06:28:00,52.2,52.2,29.80,NW,315,0.0,0.0,100,0.00,,,0.00,Wunderground v.1.15,2013-06-07 13:28:00,
2013-06-07 06:33:00,52.2,52.2,29.80,NW,315,0.0,0.0,100,0.00,,,0.00,Wunderground v.1.15,2013-06-07 13:33:00,
2013-06-07 06:38:00,52.2,52.2,29.80,NW,315,0.0,0.0,100,0.00,,,0.00,Wunderground v.1.15,2013-06-07 13:38:00,
2013-06-07 06:43:00,52.2,52.2,29.80,NW,315,0.0,0.0,100,0.00,,,0.00,Wunderground v.1.15,2013-06-07 13:43:00,
2013-06-07 06:48:00,52.2,52.2,29.80,NW,315,0.0,0.0,100,0.00,,,0.00,Wunderground v.1.15,2013-06-07 13:48:00,
2013-06-07 06:53:00,52.0,52.0,29.80,NW,315,0.0,0.0,100,0.00,,,0.00,Wunderground v.1.15,2013-06-07 13:53:00,
2013-06-07 06:58:00,52.2,52.2,29.80,NW,315,0.0,0.0,100,0.00,,,0.00,Wunderground v.1.15,2013-06-07 13:58:00,
2013-06-07 07:03:00,52.0,52.0,29.80,NW,315,0.0,0.0,100,0.00,,,0.00,Wunderground v.1.15,2013-06-07 14:03:00,
2013-06-07 07:08:00,52.0,52.0,29.80,NW,315,0.0,0.0,100,0.00,,,0.00,Wunderground v.1.15,2013-06-07 14:08:00,
2013-06-07 07:13:00,52.2,52.2,29.80,NW,315,0.0,0.0,100,0.00,,,0.00,Wunderground v.1.15,2013-06-07 14:13:00,
2013-06-07 07:18:00,52.2,52.2,29.80,NW,315,0.0,0.0,100,0.00,,,0.00,Wunderground v.1.15,2013-06-07 14:18:00,
2013-06-07 07:23:00,52.2,52.2,29.80,NW,315,0.0,0.0,100,0.00,,,0.00,Wunderground v.1.15,2013-06-07 14:23:00,
2013-06-07 07:28:00,52.2,52.2,29.80,NW,315,0.0,0.0,100,0.00,,,0.00,Wunderground v.1.15,2013-06-07 14:28:00,
2013-06-07 07:33:00,52.3,52.3,29.80,NW,315,0.0,0.0,100,0.00,,,0.00,Wunderground v.1.15,2013-06-07 14:33:00,
2013-06-07 07:38:00,52.5,52.5,29.80,NW,315,0.0,0.0,100,0.00,,,0.00,Wunderground v.1.15,2013-06-07 14:38:00,
2013-06-07 07:43:00,52.6,52.6,29.80,NW,315,0.0,0.0,100,0.00,,,0.00,Wunderground v.1.15,2013-06-07 14:43:00,
2013-06-07 07:48:00,52.8,52.8,29.81,NW,315,0.0,0.0,100,0.00,,,0.00,Wunderground v.1.15,2013-06-07 14:48:00,
2013-06-07 07:53:00,52.9,52.9,29.81,NW,315,0.0,0.0,100,0.00,,,0.00,Wunderground v.1.15,2013-06-07 14:53:00,
2013-06-07 07:58:00,52.9,52.9,29.81,NW,315,0.0,0.0,100,0.00,,,0.00,Wunderground v.1.15,2013-06-07 14:58:00,
2013-06-07 08:03:00,53.1,53.1,29.81,NW,315,0.0,0.0,100,0.00,,,0.00,Wunderground v.1.15,2013-06-07 15:03:00,
2013-06-07 08:08:00,53.1,53.1,29.81,NW,315,0.0,0.0,100,0.00,,,0.00,Wunderground v.1.15,2013-06-07 15:08:00,
2013-06-07 08:13:00,53.2,53.2,29.81,NW,315,0.0,0.0,100,0.00,,,0.00,Wunderground v.1.15,2013-06-07 15:13:00,
2013-06-07 08:18:00,53.2,53.2,29.81,NW,315,0.0,0.0,100,0.00,,,0.00,Wunderground v.1.15,2013-06-07 15:18:00,
2013-06-07 08:23:00,53.3,53.3,29.81,NW,315,0.0,0.0,100,0.00,,,0.00,Wunderground v.1.15,2013-06-07 15:23:00,
2013-06-07 08:28:00,53.3,53.3,29.81,NW,315,0.0,0.0,100,0.00,,,0.00,Wunderground v.1.15,2013-06-07 15:28:00,
2013-06-07 08:33:00,53.5,53.5,29.81,NNW,330,0.0,0.0,100,0.00,,,0.00,Wunderground v.1.15,2013-06-07 15:33:00,
2013-06-07 08:38:00,53.8,53.8,29.81,NNW,328,0.0,0.0,100,0.00,,,0.00,Wunderground v.1.15,2013-06-07 15:38:00,
2013-06-07 08:43:00,53.9,53.9,29.81,NE,41,0.0,0.0,100,0.00,,,0.00,Wunderground v.1.15,2013-06-07 15:43:00,
2013-06-07 08:48:00,54.1,54.1,29.81,NNE,32,0.0,0.0,100,0.00,,,0.00,Wunderground v.1.15,2013-06-07 15:48:00,
2013-06-07 08:53:00,54.2,54.2,29.81,WNW,292,0.0,0.0,100,0.00,,,0.00,Wunderground v.1.15,2013-06-07 15:53:00,
2013-06-07 08:58:00,54.5,54.5,29.81,North,350,0.0,0.0,100,0.00,,,0.00,Wunderground v.1.15,2013-06-07 15:58:00,
2013-06-07 09:03:00,54.8,54.5,29.80,North,0,0.0,0.0,99,0.00,,,0.00,Wunderground v.1.15,2013-06-07 16:03:00,
2013-06-07 09:08:00,55.3,55.0,29.80,North,0,0.0,0.0,99,0.00,,,0.00,Wunderground v.1.15,2013-06-07 16:08:00,
2013-06-07 09:13:00,56.0,54.9,29.80,North,356,0.0,0.0,96,0.00,,,0.00,Wunderground v.1.15,2013-06-07 16:13:00,
2013-06-07 09:18:00,56.5,55.1,29.80,North,11,0.0,0.0,95,0.00,,,0.00,Wunderground v.1.15,2013-06-07 16:18:00,
2013-06-07 09:23:00,57.0,55.0,29.80,East,82,0.0,0.0,93,0.00,,,0.00,Wunderground v.1.15,2013-06-07 16:23:00,
2013-06-07 09:28:00,57.6,54.7,29.80,North,6,1.0,2.0,90,0.00,,,0.00,Wunderground v.1.15,2013-06-07 16:28:00,
2013-06-07 09:33:00,57.8,54.6,29.80,East,94,0.0,4.0,89,0.00,,,0.00,Wunderground v.1.15,2013-06-07 16:33:00,
2013-06-07 09:38:00,58.6,55.1,29.80,East,91,0.0,4.0,88,0.00,,,0.00,Wunderground v.1.15,2013-06-07 16:38:00,
2013-06-07 09:43:00,58.7,54.5,29.80,WSW,245,1.0,4.0,86,0.00,,,0.00,Wunderground v.1.15,2013-06-07 16:43:00,
2013-06-07 09:48:00,59.2,55.0,29.80,NNW,328,0.0,4.0,86,0.00,,,0.00,Wunderground v.1.15,2013-06-07 16:48:00,
2013-06-07 09:53:00,59.8,54.6,29.80,ESE,116,2.0,2.0,83,0.00,,,0.00,Wunderground v.1.15,2013-06-07 16:53:00,
2013-06-07 09:58:00,60.5,55.6,29.80,West,259,0.0,2.0,84,0.00,,,0.00,Wunderground v.1.15,2013-06-07 16:58:00,
2013-06-07 10:03:00,60.9,55.0,29.80,ESE,109,4.0,6.0,81,0.00,,,0.00,Wunderground v.1.15,2013-06-07 17:03:00,
2013-06-07 10:08:00,59.9,54.4,29.80,SSE,165,0.0,6.0,82,0.00,,,0.00,Wunderground v.1.15,2013-06-07 17:08:00,
2013-06-07 10:13:00,59.6,54.1,29.80,SSE,147,0.0,7.0,82,0.00,,,0.00,Wunderground v.1.15,2013-06-07 17:13:00,
2013-06-07 10:18:00,59.9,54.7,29.80,West,263,1.0,7.0,83,0.00,,,0.00,Wunderground v.1.15,2013-06-07 17:18:00,
2013-06-07 10:23:00,60.1,54.9,29.80,SW,216,0.0,2.0,83,0.00,,,0.00,Wunderground v.1.15,2013-06-07 17:23:00,
2013-06-07 10:28:00,60.5,55.3,29.80,South,174,0.0,3.0,83,0.00,,,0.00,Wunderground v.1.15,2013-06-07 17:28:00,
2013-06-07 10:33:00,60.9,55.4,29.79,SSE,168,0.0,3.0,82,0.00,,,0.00,Wunderground v.1.15,2013-06-07 17:33:00,
2013-06-07 10:38:00,60.5,55.0,29.79,WNW,295,0.0,7.0,82,0.00,,,0.00,Wunderground v.1.15,2013-06-07 17:38:00,
2013-06-07 10:43:00,61.0,55.1,29.79,West,259,1.0,4.0,81,0.00,,,0.00,Wunderground v.1.15,2013-06-07 17:43:00,
2013-06-07 10:48:00,60.9,54.7,29.80,WNW,288,4.0,5.0,80,0.00,,,0.00,Wunderground v.1.15,2013-06-07 17:48:00,
2013-06-07 10:53:00,60.2,54.3,29.80,NNE,33,1.0,4.0,81,0.00,,,0.00,Wunderground v.1.15,2013-06-07 17:53:00,
2013-06-07 10:58:00,60.4,54.5,29.80,WNW,285,1.0,6.0,81,0.00,,,0.00,Wunderground v.1.15,2013-06-07 17:58:00,
2013-06-07 11:03:00,60.9,55.4,29.79,SSE,162,1.0,4.0,82,0.00,,,0.00,Wunderground v.1.15,2013-06-07 18:03:00,
2013-06-07 11:08:00,61.5,55.6,29.79,SE,124,1.0,4.0,81,0.00,,,0.00,Wunderground v.1.15,2013-06-07 18:08:00,
2013-06-07 11:13:00,61.8,55.2,29.79,SE,127,0.0,2.0,79,0.00,,,0.00,Wunderground v.1.15,2013-06-07 18:13:00,
2013-06-07 11:18:00,62.1,55.5,29.79,SSE,148,0.0,3.0,79,0.00,,,0.00,Wunderground v.1.15,2013-06-07 18:18:00,
2013-06-07 11:24:00,62.3,55.4,29.79,ESE,123,2.0,4.0,78,0.00,,,0.00,Wunderground v.1.15,2013-06-07 18:24:00,
2013-06-07 11:29:00,61.3,54.4,29.79,ESE,115,3.0,7.0,78,0.00,,,0.00,Wunderground v.1.15,2013-06-07 18:29:00,
2013-06-07 11:34:00,60.9,54.7,29.80,SSE,160,0.0,6.0,80,0.00,,,0.00,Wunderground v.1.15,2013-06-07 18:34:00,
2013-06-07 11:39:00,61.2,55.0,29.80,North,349,4.0,6.0,80,0.00,,,0.00,Wunderground v.1.15,2013-06-07 18:39:00,
2013-06-07 11:45:00,61.2,55.0,29.80,NNE,18,0.0,6.0,80,0.00,,,0.00,Wunderground v.1.15,2013-06-07 18:45:00,
2013-06-07 11:50:00,61.8,55.2,29.80,North,0,2.0,2.0,79,0.00,,,0.00,Wunderground v.1.15,2013-06-07 18:50:00,
2013-06-07 11:55:00,62.1,55.5,29.80,SSE,165,1.0,4.0,79,0.00,,,0.00,Wunderground v.1.15,2013-06-07 18:55:00,
2013-06-07 12:00:00,61.5,54.6,29.79,WNW,293,0.0,5.0,78,0.00,,,0.00,Wunderground v.1.15,2013-06-07 19:00:00,
2013-06-07 12:05:00,61.5,54.9,29.79,South,191,1.0,5.0,79,0.00,,,0.00,Wunderground v.1.15,2013-06-07 19:05:00,
2013-06-07 12:10:00,61.6,55.0,29.79,NNE,18,0.0,2.0,79,0.00,,,0.00,Wunderground v.1.15,2013-06-07 19:10:00,
2013-06-07 12:16:00,62.1,54.8,29.79,NW,307,2.0,5.0,77,0.00,,,0.00,Wunderground v.1.15,2013-06-07 19:16:00,
2013-06-07 12:21:00,62.1,55.2,29.79,North,359,0.0,2.0,78,0.00,,,0.00,Wunderground v.1.15,2013-06-07 19:21:00,
2013-06-07 12:27:00,62.4,55.4,29.79,East,101,1.0,3.0,78,0.00,,,0.00,Wunderground v.1.15,2013-06-07 19:27:00,
2013-06-07 12:32:00,61.5,54.9,29.79,South,191,0.0,3.0,79,0.00,,,0.00,Wunderground v.1.15,2013-06-07 19:32:00,
2013-06-07 12:37:00,61.0,54.8,29.79,WNW,283,2.0,6.0,80,0.00,,,0.00,Wunderground v.1.15,2013-06-07 19:37:00,
2013-06-07 12:43:00,61.5,55.6,29.79,SSW,194,1.0,3.0,81,0.00,,,0.00,Wunderground v.1.15,2013-06-07 19:43:00,
2013-06-07 12:49:00,61.3,55.1,29.79,WNW,297,0.0,6.0,80,0.00,,,0.00,Wunderground v.1.15,2013-06-07 19:49:00,
2013-06-07 12:54:00,61.5,55.3,29.79,SSE,151,0.0,5.0,80,0.00,,,0.00,Wunderground v.1.15,2013-06-07 19:54:00,
2013-06-07 12:59:00,61.5,55.3,29.79,West,281,3.0,6.0,80,0.00,,,0.00,Wunderground v.1.15,2013-06-07 19:59:00,
2013-06-07 13:04:00,61.5,55.3,29.79,NNW,348,1.0,3.0,80,0.00,,,0.00,Wunderground v.1.15,2013-06-07 20:04:00,
2013-06-07 13:09:00,61.3,54.7,29.79,NNW,338,2.0,5.0,79,0.00,,,0.00,Wunderground v.1.15,2013-06-07 20:09:00,
2013-06-07 13:14:00,60.9,54.7,29.78,North,359,2.0,5.0,80,0.00,,,0.00,Wunderground v.1.15,2013-06-07 20:14:00,
2013-06-07 13:20:00,61.6,55.7,29.78,SSE,156,1.0,1.0,81,0.00,,,0.00,Wunderground v.1.15,2013-06-07 20:20:00,
2013-06-07 13:25:00,61.8,55.2,29.78,ESE,105,2.0,6.0,79,0.00,,,0.00,Wunderground v.1.15,2013-06-07 20:25:00,
2013-06-07 13:30:00,62.0,55.8,29.78,WSW,245,1.0,1.0,80,0.00,,,0.00,Wunderground v.1.15,2013-06-07 20:30:00,
2013-06-07 13:35:00,61.8,55.2,29.78,NNE,18,0.0,6.0,79,0.00,,,0.00,Wunderground v.1.15,2013-06-07 20:35:00,
2013-06-07 13:40:00,62.0,55.4,29.78,ENE,57,1.0,2.0,79,0.00,,,0.00,Wunderground v.1.15,2013-06-07 20:40:00,
2013-06-07 13:45:00,62.1,55.5,29.78,West,269,0.0,5.0,79,0.00,,,0.00,Wunderground v.1.15,2013-06-07 20:45:00,
2013-06-07 13:51:00,62.4,55.4,29.78,SSW,192,1.0,5.0,78,0.00,,,0.00,Wunderground v.1.15,2013-06-07 20:51:00,
2013-06-07 13:56:00,62.7,55.4,29.78,ESE,117,0.0,5.0,77,0.00,,,0.00,Wunderground v.1.15,2013-06-07 20:56:00,
2013-06-07 14:01:00,63.4,55.7,29.77,NE,46,3.0,3.0,76,0.00,,,0.00,Wunderground v.1.15,2013-06-07 21:01:00,
2013-06-07 14:06:00,63.2,55.9,29.77,SE,124,0.0,4.0,77,0.00,,,0.00,Wunderground v.1.15,2013-06-07 21:06:00,
2013-06-07 14:11:00,63.9,56.5,29.77,WSW,255,0.0,2.0,77,0.00,,,0.00,Wunderground v.1.15,2013-06-07 21:11:00,
2013-06-07 14:16:00,64.2,56.1,29.76,SSE,168,0.0,2.0,75,0.00,,,0.00,Wunderground v.1.15,2013-06-07 21:16:00,
2013-06-07 14:21:00,64.3,56.2,29.76,ESE,115,1.0,3.0,75,0.00,,,0.00,Wunderground v.1.15,2013-06-07 21:21:00,
2013-06-07 14:27:00,63.7,56.4,29.76,West,273,3.0,3.0,77,0.00,,,0.00,Wunderground v.1.15,2013-06-07 21:27:00,
2013-06-07 14:32:00,63.5,56.2,29.76,South,177,0.0,4.0,77,0.00,,,0.00,Wunderground v.1.15,2013-06-07 21:32:00,
2013-06-07 14:37:00,63.9,55.8,29.76,SE,143,1.0,4.0,75,0.00,,,0.00,Wunderground v.1.15,2013-06-07 21:37:00,
2013-06-07 14:43:00,63.4,55.7,29.76,WSW,245,0.0,5.0,76,0.00,,,0.00,Wunderground v.1.15,2013-06-07 21:43:00,
2013-06-07 14:48:00,63.4,56.1,29.76,SSE,164,2.0,5.0,77,0.00,,,0.00,Wunderground v.1.15,2013-06-07 21:48:00,
2013-06-07 14:53:00,63.2,55.9,29.76,North,3,7.0,7.0,77,0.00,,,0.00,Wunderground v.1.15,2013-06-07 21:53:00,
2013-06-07 14:59:00,62.9,55.9,29.76,North,8,2.0,7.0,78,0.00,,,0.00,Wunderground v.1.15,2013-06-07 21:59:00,
2013-06-07 15:04:00,62.4,55.4,29.76,West,262,5.0,9.0,78,0.00,,,0.00,Wunderground v.1.15,2013-06-07 22:04:00,
2013-06-07 15:09:00,62.0,55.1,29.76,NE,39,0.0,9.0,78,0.00,,,0.00,Wunderground v.1.15,2013-06-07 22:09:00,
2013-06-07 15:14:00,62.1,55.5,29.76,SE,146,0.0,4.0,79,0.00,,,0.00,Wunderground v.1.15,2013-06-07 22:14:00,
2013-06-07 15:19:00,61.8,55.6,29.76,NW,320,4.0,6.0,80,0.00,,,0.00,Wunderground v.1.15,2013-06-07 22:19:00,
2013-06-07 15:24:00,61.8,55.6,29.76,North,355,4.0,4.0,80,0.00,,,0.00,Wunderground v.1.15,2013-06-07 22:24:00,
2013-06-07 15:30:00,61.3,55.4,29.76,NNE,23,2.0,5.0,81,0.00,,,0.00,Wunderground v.1.15,2013-06-07 22:30:00,
2013-06-07 15:35:00,61.0,55.1,29.76,WNW,301,0.0,7.0,81,0.00,,,0.00,Wunderground v.1.15,2013-06-07 22:35:00,
2013-06-07 15:40:00,61.6,55.7,29.76,East,93,2.0,2.0,81,0.00,,,0.00,Wunderground v.1.15,2013-06-07 22:40:00,
2013-06-07 15:45:00,62.7,56.4,29.75,WNW,298,1.0,2.0,80,0.00,,,0.00,Wunderground v.1.15,2013-06-07 22:45:00,
2013-06-07 15:50:00,63.4,56.4,29.75,NE,53,0.0,1.0,78,0.00,,,0.00,Wunderground v.1.15,2013-06-07 22:50:00,
2013-06-07 15:55:00,62.9,55.6,29.75,NNE,31,1.0,3.0,77,0.00,,,0.00,Wunderground v.1.15,2013-06-07 22:55:00,
2013-06-07 16:00:00,62.7,55.7,29.75,NNW,333,2.0,2.0,78,0.00,,,0.00,Wunderground v.1.15,2013-06-07 23:00:00,
2013-06-07 16:05:00,62.3,55.4,29.75,WSW,256,4.0,6.0,78,0.00,,,0.00,Wunderground v.1.15,2013-06-07 23:05:00,
2013-06-07 16:10:00,61.3,55.1,29.75,NW,312,1.0,2.0,80,0.00,,,0.00,Wunderground v.1.15,2013-06-07 23:10:00,
2013-06-07 16:17:00,61.6,55.4,29.75,West,280,0.0,4.0,80,0.00,,,0.00,Wunderground v.1.15,2013-06-07 23:17:00,
2013-06-07 16:22:00,62.3,56.0,29.75,SE,131,0.0,2.0,80,0.00,,,0.00,Wunderground v.1.15,2013-06-07 23:22:00,
2013-06-07 16:27:00,62.3,55.7,29.75,WNW,285,1.0,3.0,79,0.00,,,0.00,Wunderground v.1.15,2013-06-07 23:27:00,
2013-06-07 16:32:00,62.1,55.5,29.75,NW,307,0.0,5.0,79,0.00,,,0.00,Wunderground v.1.15,2013-06-07 23:32:00,
2013-06-07 16:37:00,61.6,55.4,29.75,WNW,282,0.0,5.0,80,0.00,,,0.00,Wunderground v.1.15,2013-06-07 23:37:00,
2013-06-07 16:42:00,61.8,55.9,29.75,East,83,1.0,2.0,81,0.00,,,0.00,Wunderground v.1.15,2013-06-07 23:42:00,
2013-06-07 16:49:00,62.0,55.8,29.74,NNW,340,0.0,3.0,80,0.00,,,0.00,Wunderground v.1.15,2013-06-07 23:49:00,
2013-06-07 16:54:00,62.1,55.5,29.74,SSE,154,1.0,2.0,79,0.00,,,0.00,Wunderground v.1.15,2013-06-07 23:54:00,
2013-06-07 16:59:00,62.1,55.9,29.74,North,8,0.0,4.0,80,0.00,,,0.00,Wunderground v.1.15,2013-06-07 23:59:00,
2013-06-07 17:04:00,62.1,55.5,29.74,NNW,334,4.0,5.0,79,0.00,,,0.00,Wunderground v.1.15,2013-06-08 00:04:00,
2013-06-07 17:09:00,61.5,55.3,29.74,SW,232,0.0,5.0,80,0.00,,,0.00,Wunderground v.1.15,2013-06-08 00:09:00,
2013-06-07 17:14:00,61.5,55.3,29.73,NE,49,1.0,2.0,80,0.00,,,0.00,Wunderground v.1.15,2013-06-08 00:14:00,
2013-06-07 17:19:00,61.5,55.3,29.73,ENE,63,1.0,2.0,80,0.00,,,0.00,Wunderground v.1.15,2013-06-08 00:19:00,
2013-06-07 17:24:00,61.6,55.4,29.73,ESE,117,0.0,2.0,80,0.00,,,0.00,Wunderground v.1.15,2013-06-08 00:24:00,
2013-06-07 17:30:00,61.5,55.3,29.73,NNW,340,1.0,1.0,80,0.00,,,0.00,Wunderground v.1.15,2013-06-08 00:30:00,
2013-06-07 17:35:00,61.0,55.1,29.73,East,87,0.0,3.0,81,0.00,,,0.00,Wunderground v.1.15,2013-06-08 00:35:00,
2013-06-07 17:40:00,60.7,55.2,29.73,NNE,20,0.0,0.0,82,0.00,,,0.00,Wunderground v.1.15,2013-06-08 00:40:00,
2013-06-07 17:45:00,60.4,54.9,29.73,NW,312,0.0,5.0,82,0.00,,,0.00,Wunderground v.1.15,2013-06-08 00:45:00,
2013-06-07 17:50:00,60.1,54.9,29.73,South,183,0.0,1.0,83,0.00,,,0.00,Wunderground v.1.15,2013-06-08 00:50:00,
2013-06-07 17:56:00,59.8,55.0,29.73,South,185,0.0,2.0,84,0.00,,,0.00,Wunderground v.1.15,2013-06-08 00:56:00,
2013-06-07 18:02:00,59.2,54.4,29.73,WNW,297,3.0,5.0,84,0.00,,,0.00,Wunderground v.1.15,2013-06-08 01:02:00,
2013-06-07 18:07:00,58.9,54.7,29.73,West,280,0.0,5.0,86,0.00,,,0.00,Wunderground v.1.15,2013-06-08 01:07:00,
2013-06-07 18:12:00,59.2,55.0,29.73,West,280,0.0,1.0,86,0.00,,,0.00,Wunderground v.1.15,2013-06-08 01:12:00,
2013-06-07 18:17:00,59.5,55.3,29.73,North,1,2.0,2.0,86,0.00,,,0.00,Wunderground v.1.15,2013-06-08 01:17:00,
2013-06-07 18:23:00,59.0,54.5,29.73,NNW,330,1.0,3.0,85,0.00,,,0.00,Wunderground v.1.15,2013-06-08 01:23:00,
2013-06-07 18:28:00,58.4,54.2,29.73,NNW,348,0.0,3.0,86,0.00,,,0.00,Wunderground v.1.15,2013-06-08 01:28:00,
2013-06-07 18:33:00,58.6,54.7,29.73,NNW,348,0.0,1.0,87,0.00,,,0.00,Wunderground v.1.15,2013-06-08 01:33:00,
2013-06-07 18:38:00,58.6,54.7,29.73,ESE,113,1.0,1.0,87,0.00,,,0.00,Wunderground v.1.15,2013-06-08 01:38:00,
2013-06-07 18:43:00,58.1,54.2,29.73,NNW,331,0.0,0.0,87,0.00,,,0.00,Wunderground v.1.15,2013-06-08 01:43:00,
2013-06-07 18:48:00,57.8,54.3,29.72,SW,233,0.0,2.0,88,0.00,,,0.00,Wunderground v.1.15,2013-06-08 01:48:00,
2013-06-07 18:53:00,57.3,53.8,29.72,WNW,290,0.0,2.0,88,0.00,,,0.00,Wunderground v.1.15,2013-06-08 01:53:00,
2013-06-07 18:59:00,57.0,53.8,29.72,North,0,0.0,3.0,89,0.00,,,0.00,Wunderground v.1.15,2013-06-08 01:59:00,
2013-06-07 19:04:00,56.9,53.7,29.72,WNW,285,1.0,4.0,89,0.00,,,0.00,Wunderground v.1.15,2013-06-08 02:04:00,
2013-06-07 19:09:00,56.6,53.7,29.72,WNW,300,0.0,4.0,90,0.00,,,0.00,Wunderground v.1.15,2013-06-08 02:09:00,
2013-06-07 19:14:00,56.5,53.9,29.72,WNW,300,0.0,0.0,91,0.00,,,0.00,Wunderground v.1.15,2013-06-08 02:14:00,
2013-06-07 19:19:00,56.3,53.7,29.72,WNW,300,2.0,2.0,91,0.00,,,0.00,Wunderground v.1.15,2013-06-08 02:19:00,
2013-06-07 19:25:00,56.2,53.9,29.72,WNW,300,0.0,2.0,92,0.00,,,0.00,Wunderground v.1.15,2013-06-08 02:25:00,
2013-06-07 19:31:00,56.0,53.7,29.72,WNW,300,0.0,0.0,92,0.00,,,0.00,Wunderground v.1.15,2013-06-08 02:31:00,
2013-06-07 19:36:00,55.9,53.6,29.72,WNW,300,0.0,1.0,92,0.00,,,0.00,Wunderground v.1.15,2013-06-08 02:36:00,
2013-06-07 19:41:00,55.7,53.7,29.72,WNW,300,0.0,0.0,93,0.00,,,0.00,Wunderground v.1.15,2013-06-08 02:41:00,
2013-06-07 19:47:00,55.7,53.7,29.72,WNW,300,0.0,0.0,93,0.00,,,0.00,Wunderground v.1.15,2013-06-08 02:47:00,
2013-06-07 19:52:00,55.6,53.6,29.72,WNW,300,0.0,0.0,93,0.00,,,0.00,Wunderground v.1.15,2013-06-08 02:52:00,
2013-06-07 19:57:00,55.6,53.6,29.72,WNW,300,0.0,0.0,93,0.00,,,0.00,Wunderground v.1.15,2013-06-08 02:57:00,
2013-06-07 20:03:00,55.4,53.4,29.72,WNW,300,0.0,0.0,93,0.00,,,0.00,Wunderground v.1.15,2013-06-08 03:03:00,
2013-06-07 20:09:00,55.4,53.7,29.72,WNW,300,0.0,0.0,94,0.00,,,0.00,Wunderground v.1.15,2013-06-08 03:09:00,
2013-06-07 20:15:00,55.3,53.6,29.72,WNW,300,0.0,0.0,94,0.00,,,0.00,Wunderground v.1.15,2013-06-08 03:15:00,
2013-06-07 20:20:00,55.1,53.4,29.72,WNW,300,0.0,0.0,94,0.00,,,0.00,Wunderground v.1.15,2013-06-08 03:20:00,
2013-06-07 20:25:00,55.0,53.3,29.72,WNW,300,0.0,0.0,94,0.00,,,0.00,Wunderground v.1.15,2013-06-08 03:25:00,
2013-06-07 20:30:00,54.8,53.1,29.72,WNW,300,0.0,0.0,94,0.00,,,0.00,Wunderground v.1.15,2013-06-08 03:30:00,
2013-06-07 20:35:00,54.7,53.0,29.72,WNW,300,0.0,0.0,94,0.00,,,0.00,Wunderground v.1.15,2013-06-08 03:35:00,
2013-06-07 20:40:00,54.5,52.8,29.72,WNW,300,0.0,0.0,94,0.00,,,0.00,Wunderground v.1.15,2013-06-08 03:40:00,
2013-06-07 20:45:00,54.4,52.7,29.73,WNW,300,0.0,0.0,94,0.00,,,0.00,Wunderground v.1.15,2013-06-08 03:45:00,
2013-06-07 20:50:00,54.2,52.8,29.73,WNW,300,0.0,0.0,95,0.00,,,0.00,Wunderground v.1.15,2013-06-08 03:50:00,
2013-06-07 20:55:00,54.1,52.7,29.73,WNW,300,0.0,0.0,95,0.00,,,0.00,Wunderground v.1.15,2013-06-08 03:55:00,
2013-06-07 21:00:00,53.9,52.5,29.73,WNW,300,0.0,0.0,95,0.00,,,0.00,Wunderground v.1.15,2013-06-08 04:00:00,
2013-06-07 21:01:00,53.9,52.5,29.73,WNW,300,0.0,0.0,95,0.00,,,0.00,Wunderground v.1.15,2013-06-08 04:01:00,
2013-06-07 21:06:00,53.8,52.4,29.73,WNW,300,0.0,0.0,95,0.00,,,0.00,Wunderground v.1.15,2013-06-08 04:06:00,
2013-06-07 21:11:00,53.6,52.2,29.73,WNW,300,0.0,0.0,95,0.00,,,0.00,Wunderground v.1.15,2013-06-08 04:11:00,
2013-06-07 21:16:00,53.5,52.4,29.73,WNW,300,0.0,0.0,96,0.00,,,0.00,Wunderground v.1.15,2013-06-08 04:16:00,
2013-06-07 21:22:00,53.3,52.2,29.73,WNW,300,0.0,0.0,96,0.00,,,0.00,Wunderground v.1.15,2013-06-08 04:22:00,
2013-06-07 21:27:00,53.3,52.2,29.73,WNW,300,0.0,0.0,96,0.00,,,0.00,Wunderground v.1.15,2013-06-08 04:27:00,
2013-06-07 21:32:00,53.2,52.1,29.73,WNW,300,0.0,0.0,96,0.00,,,0.00,Wunderground v.1.15,2013-06-08 04:32:00,
2013-06-07 21:37:00,53.2,52.1,29.73,WNW,300,0.0,0.0,96,0.00,,,0.00,Wunderground v.1.15,2013-06-08 04:37:00,
2013-06-07 21:42:00,53.2,52.1,29.73,WNW,300,0.0,0.0,96,0.00,,,0.00,Wunderground v.1.15,2013-06-08 04:42:00,
2013-06-07 21:47:00,53.3,52.5,29.73,WNW,300,0.0,0.0,97,0.00,,,0.00,Wunderground v.1.15,2013-06-08 04:47:00,
2013-06-07 21:52:00,53.3,52.5,29.73,WNW,300,0.0,0.0,97,0.00,,,0.00,Wunderground v.1.15,2013-06-08 04:52:00,
2013-06-07 21:57:00,53.3,52.5,29.73,WNW,300,0.0,0.0,97,0.00,,,0.00,Wunderground v.1.15,2013-06-08 04:57:00,
2013-06-07 22:02:00,53.3,52.8,29.73,WNW,300,0.0,0.0,98,0.00,,,0.00,Wunderground v.1.15,2013-06-08 05:02:00,
2013-06-07 22:07:00,53.5,52.9,29.73,WNW,300,0.0,0.0,98,0.00,,,0.00,Wunderground v.1.15,2013-06-08 05:07:00,
2013-06-07 22:12:00,53.5,52.9,29.73,WNW,300,0.0,0.0,98,0.00,,,0.00,Wunderground v.1.15,2013-06-08 05:12:00,
2013-06-07 22:17:00,53.6,53.0,29.74,WNW,300,0.0,0.0,98,0.00,,,0.00,Wunderground v.1.15,2013-06-08 05:17:00,
2013-06-07 22:22:00,53.6,53.3,29.74,WNW,300,0.0,0.0,99,0.00,,,0.00,Wunderground v.1.15,2013-06-08 05:22:00,
2013-06-07 22:27:00,53.6,53.3,29.74,WNW,300,0.0,0.0,99,0.00,,,0.00,Wunderground v.1.15,2013-06-08 05:27:00,
2013-06-07 22:32:00,53.6,53.3,29.74,WNW,300,0.0,0.0,99,0.00,,,0.00,Wunderground v.1.15,2013-06-08 05:32:00,
2013-06-07 22:37:00,53.6,53.3,29.74,WNW,300,0.0,0.0,99,0.00,,,0.00,Wunderground v.1.15,2013-06-08 05:37:00,
2013-06-07 22:42:00,53.6,53.6,29.74,WNW,300,0.0,0.0,100,0.00,,,0.00,Wunderground v.1.15,2013-06-08 05:42:00,
2013-06-07 22:47:00,53.6,53.6,29.74,WNW,300,0.0,0.0,100,0.00,,,0.00,Wunderground v.1.15,2013-06-08 05:47:00,
2013-06-07 22:52:00,53.6,53.6,29.74,WNW,300,0.0,0.0,100,0.00,,,0.00,Wunderground v.1.15,2013-06-08 05:52:00,
2013-06-07 22:57:00,53.6,53.6,29.74,WNW,300,0.0,0.0,100,0.00,,,0.00,Wunderground v.1.15,2013-06-08 05:57:00,
2013-06-07 23:02:00,53.6,53.6,29.75,WNW,300,0.0,0.0,100,0.00,,,0.00,Wunderground v.1.15,2013-06-08 06:02:00,
2013-06-07 23:07:00,53.6,53.6,29.75,WNW,300,0.0,0.0,100,0.00,,,0.00,Wunderground v.1.15,2013-06-08 06:07:00,
2013-06-07 23:12:00,53.5,53.5,29.75,WNW,300,0.0,0.0,100,0.00,,,0.00,Wunderground v.1.15,2013-06-08 06:12:00,
2013-06-07 23:17:00,53.5,53.5,29.75,WNW,300,0.0,0.0,100,0.00,,,0.00,Wunderground v.1.15,2013-06-08 06:17:00,
2013-06-07 23:22:00,53.5,53.5,29.75,WNW,300,0.0,0.0,100,0.00,,,0.00,Wunderground v.1.15,2013-06-08 06:22:00,
2013-06-07 23:27:00,53.5,53.5,29.75,WNW,300,0.0,0.0,100,0.00,,,0.00,Wunderground v.1.15,2013-06-08 06:27:00,
2013-06-07 23:32:00,53.5,53.5,29.75,WNW,300,0.0,0.0,100,0.00,,,0.00,Wunderground v.1.15,2013-06-08 06:32:00,
2013-06-07 23:37:00,53.5,53.5,29.75,WNW,300,0.0,0.0,100,0.00,,,0.00,Wunderground v.1.15,2013-06-08 06:37:00,
2013-06-07 23:42:00,53.5,53.5,29.75,WNW,300,0.0,0.0,100,0.00,,,0.00,Wunderground v.1.15,2013-06-08 06:42:00,
2013-06-07 23:47:00,53.5,53.5,29.75,WNW,300,0.0,0.0,100,0.00,,,0.00,Wunderground v.1.15,2013-06-08 06:47:00,
2013-06-07 23:52:00,53.5,53.5,29.75,WNW,300,0.0,0.0,100,0.00,,,0.00,Wunderground v.1.15,2013-06-08 06:52:00,
2013-06-07 23:57:00,53.3,53.3,29.75,WNW,300,0.0,0.0,100,0.00,,,0.00,Wunderground v.1.15,2013-06-08 06:57:00,